Time;durP1;ratioP1;P1;durP2;ratioP2;P2;SDS_P1;SDS_P2;PMS_P1;PMS_P2;Temp;Humidity;BMP_temperature;BMP_pressure;BME280_temperature;BME280_humidity;BME280_pressure;Samples;Min_cycle;Max_cycle;Signal;HPM_P1;HPM_P2
2021/11/23 00:01:44;;;;;;;6.68;3.45;;;;;;;;;;5048057;28;20033;-54
2021/11/23 00:04:10;;;;;;;6.60;3.40;;;;;;;;;;5052218;28;20768;-55
2021/11/23 00:06:37;;;;;;;6.70;3.50;;;;;;;;;;5051324;28;20040;-57
2021/11/23 00:09:04;;;;;;;7.93;4.00;;;;;;;;;;5047041;28;20052;-52
2021/11/23 00:11:30;;;;;;;5.05;3.30;;;;;;;;;;5049930;28;20123;-53
2021/11/23 00:13:56;;;;;;;8.40;3.35;;;;;;;;;;5045272;28;20124;-54
2021/11/23 00:16:22;;;;;;;7.45;4.20;;;;;;;;;;5053977;28;20025;-53
2021/11/23 00:18:48;;;;;;;8.32;3.72;;;;;;;;;;5045625;28;20033;-52
2021/11/23 00:21:15;;;;;;;9.63;3.90;;;;;;;;;;5043811;28;20067;-57
2021/11/23 00:23:41;;;;;;;10.10;4.60;;;;;;;;;;5047898;28;20465;-55
2021/11/23 00:26:07;;;;;;;7.20;4.38;;;;;;;;;;5043014;28;20025;-52
2021/11/23 00:28:33;;;;;;;10.18;3.85;;;;;;;;;;5053358;28;20100;-54
2021/11/23 00:30:59;;;;;;;10.43;4.85;;;;;;;;;;5053161;28;20036;-56
2021/11/23 00:33:31;;;;;;;10.32;4.65;;;;;;;;;;5052256;28;20045;-55
2021/11/23 00:35:58;;;;;;;11.27;4.80;;;;;;;;;;5047206;28;20053;-56
2021/11/23 00:38:25;;;;;;;7.10;4.85;;;;;;;;;;5048937;28;20067;-54
2021/11/23 00:40:53;;;;;;;7.50;4.32;;;;;;;;;;5051931;28;20047;-57
2021/11/23 00:43:19;;;;;;;11.32;5.57;;;;;;;;;;5050014;28;20025;-57
2021/11/23 00:45:44;;;;;;;7.78;4.88;;;;;;;;;;5046607;28;20534;-57
2021/11/23 00:48:11;;;;;;;11.93;5.90;;;;;;;;;;5048939;28;20029;-56
2021/11/23 00:50:37;;;;;;;17.00;5.68;;;;;;;;;;5047136;28;20044;-53
2021/11/23 00:53:04;;;;;;;11.32;5.53;;;;;;;;;;5042467;28;20036;-55
2021/11/23 00:55:31;;;;;;;11.55;5.32;;;;;;;;;;5048370;28;20105;-54
2021/11/23 00:57:57;;;;;;;9.20;5.05;;;;;;;;;;5048514;28;20029;-54
2021/11/23 01:00:23;;;;;;;8.80;5.30;;;;;;;;;;5044576;28;20086;-57
2021/11/23 01:02:49;;;;;;;11.30;5.43;;;;;;;;;;5048387;28;20060;-56
2021/11/23 01:05:15;;;;;;;9.45;5.22;;;;;;;;;;5049654;28;20119;-55
2021/11/23 01:07:41;;;;;;;9.95;5.57;;;;;;;;;;5049436;28;20044;-52
2021/11/23 01:10:08;;;;;;;10.52;5.35;;;;;;;;;;5050694;28;20025;-53
2021/11/23 01:12:34;;;;;;;9.95;5.63;;;;;;;;;;5050899;28;20065;-53
2021/11/23 01:15:00;;;;;;;12.68;6.10;;;;;;;;;;5044443;28;20487;-54
2021/11/23 01:17:26;;;;;;;9.75;5.57;;;;;;;;;;5046490;28;20025;-52
2021/11/23 01:19:52;;;;;;;9.05;5.35;;;;;;;;;;5046635;28;20127;-53
2021/11/23 01:22:18;;;;;;;11.95;6.03;;;;;;;;;;5049191;28;20027;-56
2021/11/23 01:24:44;;;;;;;11.93;6.20;;;;;;;;;;5047787;28;20044;-55
2021/11/23 01:27:10;;;;;;;9.43;5.75;;;;;;;;;;5037369;28;20033;-54
2021/11/23 01:29:36;;;;;;;9.30;5.43;;;;;;;;;;5041645;28;20030;-54
2021/11/23 01:32:03;;;;;;;10.30;5.88;;;;;;;;;;5048626;28;20021;-55
2021/11/23 01:34:29;;;;;;;13.10;6.30;;;;;;;;;;5042601;28;20071;-55
2021/11/23 01:36:55;;;;;;;9.75;5.35;;;;;;;;;;5040475;28;20112;-55
2021/11/23 01:39:22;;;;;;;11.20;6.22;;;;;;;;;;5048041;28;20536;-55
2021/11/23 01:41:48;;;;;;;12.45;6.00;;;;;;;;;;5040040;28;20025;-56
2021/11/23 01:44:14;;;;;;;10.85;5.80;;;;;;;;;;5051923;28;20017;-55
2021/11/23 01:46:40;;;;;;;9.57;5.93;;;;;;;;;;5050121;28;20071;-57
2021/11/23 01:49:06;;;;;;;12.85;5.65;;;;;;;;;;5048719;28;20031;-56
2021/11/23 01:51:32;;;;;;;14.63;5.88;;;;;;;;;;5038902;28;20025;-57
2021/11/23 01:53:58;;;;;;;8.68;5.28;;;;;;;;;;5040624;28;20025;-54
2021/11/23 01:56:24;;;;;;;11.98;5.80;;;;;;;;;;5050683;28;20036;-57
2021/11/23 01:58:50;;;;;;;10.15;5.80;;;;;;;;;;5043186;28;20107;-55
2021/11/23 02:01:17;;;;;;;11.75;6.57;;;;;;;;;;5041918;28;20041;-54
2021/11/23 02:03:43;;;;;;;9.98;6.20;;;;;;;;;;5045106;28;20048;-57
2021/11/23 02:06:09;;;;;;;11.05;6.18;;;;;;;;;;5042208;28;20036;-54
2021/11/23 02:08:36;;;;;;;11.23;5.93;;;;;;;;;;5045991;28;20026;-54
2021/11/23 02:11:02;;;;;;;11.35;6.53;;;;;;;;;;5041991;28;20036;-56
2021/11/23 02:13:29;;;;;;;15.15;6.47;;;;;;;;;;5047012;28;20048;-54
2021/11/23 02:15:56;;;;;;;8.48;5.55;;;;;;;;;;5044297;28;20064;-53
2021/11/23 02:18:23;;;;;;;12.48;6.53;;;;;;;;;;5041119;28;20061;-53
2021/11/23 02:20:50;;;;;;;13.77;6.13;;;;;;;;;;5041555;28;20065;-56
2021/11/23 02:23:17;;;;;;;12.07;5.70;;;;;;;;;;5038186;28;20037;-54
2021/11/23 02:25:43;;;;;;;10.32;5.85;;;;;;;;;;5033162;28;20037;-53
2021/11/23 02:28:10;;;;;;;15.85;6.13;;;;;;;;;;5042739;28;20017;-52
2021/11/23 02:30:38;;;;;;;11.70;6.32;;;;;;;;;;5044465;28;20065;-53
2021/11/23 02:33:04;;;;;;;13.32;6.47;;;;;;;;;;5043630;28;20565;-52
2021/11/23 02:35:31;;;;;;;11.40;6.25;;;;;;;;;;5042385;28;20032;-56
2021/11/23 02:37:57;;;;;;;10.43;5.63;;;;;;;;;;5038542;28;20025;-56
2021/11/23 02:40:24;;;;;;;17.25;7.10;;;;;;;;;;5045340;28;20024;-57
2021/11/23 02:42:50;;;;;;;11.85;5.72;;;;;;;;;;5046453;28;20108;-55
2021/11/23 02:45:17;;;;;;;9.52;5.88;;;;;;;;;;5039030;28;20068;-55
2021/11/23 02:47:43;;;;;;;10.75;5.43;;;;;;;;;;5043419;28;20465;-58
2021/11/23 02:50:12;;;;;;;9.73;5.60;;;;;;;;;;5042713;28;20048;-54
2021/11/23 02:52:38;;;;;;;11.73;5.82;;;;;;;;;;5044206;28;20033;-55
2021/11/23 02:55:06;;;;;;;11.10;5.95;;;;;;;;;;5049986;28;20116;-56
2021/11/23 02:57:33;;;;;;;12.00;6.55;;;;;;;;;;5034752;28;20116;-56
2021/11/23 02:59:59;;;;;;;11.10;5.97;;;;;;;;;;5047659;28;20035;-57
2021/11/23 03:02:25;;;;;;;10.90;5.38;;;;;;;;;;5044942;28;20043;-56
2021/11/23 03:04:56;;;;;;;9.45;6.30;;;;;;;;;;5048977;28;20045;-53
2021/11/23 03:07:22;;;;;;;10.35;6.22;;;;;;;;;;5046348;28;20075;-55
2021/11/23 03:09:48;;;;;;;11.00;5.82;;;;;;;;;;5040476;28;20452;-54
2021/11/23 03:12:15;;;;;;;10.05;6.05;;;;;;;;;;5044979;28;20104;-52
2021/11/23 03:14:41;;;;;;;10.15;5.97;;;;;;;;;;5042278;28;20373;-56
2021/11/23 03:17:07;;;;;;;11.50;6.28;;;;;;;;;;5045732;28;20033;-57
2021/11/23 03:19:33;;;;;;;11.65;6.00;;;;;;;;;;5045537;28;20776;-57
2021/11/23 03:21:59;;;;;;;13.00;5.95;;;;;;;;;;5050521;28;20016;-57
2021/11/23 03:24:26;;;;;;;11.85;5.50;;;;;;;;;;5048697;28;20052;-53
2021/11/23 03:26:52;;;;;;;16.30;6.15;;;;;;;;;;5043340;28;20050;-56
2021/11/23 03:29:18;;;;;;;8.90;5.47;;;;;;;;;;5052237;28;20365;-55
2021/11/23 03:31:44;;;;;;;12.45;5.80;;;;;;;;;;5043838;28;20029;-56
2021/11/23 03:34:10;;;;;;;13.02;6.47;;;;;;;;;;5047509;28;20733;-55
2021/11/23 03:36:39;;;;;;;14.82;6.90;;;;;;;;;;5042036;28;20055;-56
2021/11/23 03:39:06;;;;;;;10.85;6.15;;;;;;;;;;5044096;28;20024;-57
2021/11/23 03:41:32;;;;;;;11.65;6.35;;;;;;;;;;5052247;28;20037;-56
2021/11/23 03:43:58;;;;;;;11.55;5.28;;;;;;;;;;5051820;28;20087;-56
2021/11/23 03:46:24;;;;;;;11.73;5.90;;;;;;;;;;5054455;28;20029;-57
2021/11/23 03:48:52;;;;;;;10.05;4.97;;;;;;;;;;5048909;28;20044;-56
2021/11/23 03:51:18;;;;;;;12.82;6.30;;;;;;;;;;5046007;28;20054;-58
2021/11/23 03:53:44;;;;;;;9.35;5.60;;;;;;;;;;5051386;28;20021;-56
2021/11/23 03:56:12;;;;;;;13.65;6.05;;;;;;;;;;5053460;28;20051;-56
2021/11/23 03:58:38;;;;;;;13.93;6.88;;;;;;;;;;5047295;28;20040;-57
2021/11/23 04:01:04;;;;;;;13.70;5.72;;;;;;;;;;5040220;28;20052;-54
2021/11/23 04:03:30;;;;;;;8.70;5.35;;;;;;;;;;5047161;28;20773;-57
2021/11/23 04:05:56;;;;;;;10.38;5.63;;;;;;;;;;5054534;28;20064;-54
2021/11/23 04:08:22;;;;;;;13.63;6.45;;;;;;;;;;5045752;28;20040;-57
2021/11/23 04:10:48;;;;;;;11.88;6.07;;;;;;;;;;5054457;28;20521;-54
2021/11/23 04:13:16;;;;;;;12.82;6.63;;;;;;;;;;5052155;28;20100;-53
2021/11/23 04:15:42;;;;;;;20.45;6.35;;;;;;;;;;5053671;28;20543;-54
2021/11/23 04:18:08;;;;;;;14.20;6.30;;;;;;;;;;5050012;28;20107;-54
2021/11/23 04:20:35;;;;;;;12.23;6.10;;;;;;;;;;5047688;28;20044;-56
2021/11/23 04:23:01;;;;;;;15.35;6.80;;;;;;;;;;5047804;28;20029;-56
2021/11/23 04:25:27;;;;;;;16.17;6.00;;;;;;;;;;5044958;28;20119;-55
2021/11/23 04:27:53;;;;;;;11.90;5.97;;;;;;;;;;5042127;28;20108;-56
2021/11/23 04:30:19;;;;;;;13.98;6.38;;;;;;;;;;5051091;28;20033;-55
2021/11/23 04:32:45;;;;;;;13.98;6.45;;;;;;;;;;5051484;28;20037;-56
2021/11/23 04:35:12;;;;;;;16.83;6.90;;;;;;;;;;5055001;28;20207;-53
2021/11/23 04:37:38;;;;;;;12.00;6.43;;;;;;;;;;5050220;28;20036;-54
2021/11/23 04:40:05;;;;;;;12.40;5.95;;;;;;;;;;5051558;28;20117;-55
2021/11/23 04:42:31;;;;;;;10.63;5.95;;;;;;;;;;5047489;28;20154;-54
2021/11/23 04:44:57;;;;;;;12.43;6.18;;;;;;;;;;5055381;28;20045;-56
2021/11/23 04:47:23;;;;;;;10.57;5.72;;;;;;;;;;5053606;28;20469;-57
2021/11/23 04:49:49;;;;;;;13.77;7.32;;;;;;;;;;5056013;28;20053;-56
2021/11/23 04:52:15;;;;;;;18.45;6.72;;;;;;;;;;5046493;28;20065;-56
2021/11/23 04:54:41;;;;;;;11.75;6.30;;;;;;;;;;5049219;28;20120;-55
2021/11/23 04:57:07;;;;;;;12.77;6.45;;;;;;;;;;5052767;28;20025;-54
2021/11/23 04:59:33;;;;;;;14.15;6.13;;;;;;;;;;5054410;28;20112;-53
2021/11/23 05:01:59;;;;;;;16.08;6.75;;;;;;;;;;5052979;28;20029;-54
2021/11/23 05:04:26;;;;;;;12.23;6.45;;;;;;;;;;5050050;28;20040;-57
2021/11/23 05:06:52;;;;;;;14.75;7.15;;;;;;;;;;5050686;28;20060;-55
2021/11/23 05:09:18;;;;;;;16.05;6.25;;;;;;;;;;5050673;28;20021;-56
2021/11/23 05:11:47;;;;;;;13.50;6.28;;;;;;;;;;5054680;28;20057;-55
2021/11/23 05:14:14;;;;;;;14.55;6.68;;;;;;;;;;5050239;28;20124;-54
2021/11/23 05:16:40;;;;;;;14.95;6.28;;;;;;;;;;5050980;28;20037;-54
2021/11/23 05:19:06;;;;;;;15.32;6.35;;;;;;;;;;5048492;28;20028;-55
2021/11/23 05:21:32;;;;;;;10.82;6.22;;;;;;;;;;5052503;28;20040;-53
2021/11/23 05:23:58;;;;;;;11.88;6.60;;;;;;;;;;5049099;28;20025;-56
2021/11/23 05:26:24;;;;;;;16.77;6.82;;;;;;;;;;5051080;28;20040;-55
2021/11/23 05:28:50;;;;;;;14.48;7.20;;;;;;;;;;5059430;28;20029;-52
2021/11/23 05:31:16;;;;;;;14.35;6.78;;;;;;;;;;5051657;28;20024;-52
2021/11/23 05:33:42;;;;;;;15.57;6.93;;;;;;;;;;5053779;28;20123;-55
2021/11/23 05:36:08;;;;;;;12.65;7.03;;;;;;;;;;5045815;28;20029;-52
2021/11/23 05:38:34;;;;;;;13.38;6.07;;;;;;;;;;5045971;28;20030;-56
2021/11/23 05:41:00;;;;;;;12.95;6.75;;;;;;;;;;5041357;28;20032;-55
2021/11/23 05:43:26;;;;;;;12.02;6.07;;;;;;;;;;5046010;28;20025;-56
2021/11/23 05:45:52;;;;;;;14.40;6.50;;;;;;;;;;5053954;28;20031;-54
2021/11/23 05:48:18;;;;;;;18.58;7.43;;;;;;;;;;5051165;28;20100;-54
2021/11/23 05:50:44;;;;;;;17.60;7.80;;;;;;;;;;5047763;28;20028;-54
2021/11/23 05:53:10;;;;;;;15.00;7.05;;;;;;;;;;5044208;28;20037;-56
2021/11/23 05:55:36;;;;;;;16.85;7.40;;;;;;;;;;5048101;28;20032;-55
2021/11/23 05:58:02;;;;;;;19.38;7.82;;;;;;;;;;5051323;28;20115;-55
2021/11/23 06:00:28;;;;;;;14.68;7.68;;;;;;;;;;5047073;28;20028;-56
2021/11/23 06:02:54;;;;;;;15.90;6.80;;;;;;;;;;5050427;28;20119;-57
2021/11/23 06:05:21;;;;;;;15.85;7.70;;;;;;;;;;5048855;28;20078;-53
2021/11/23 06:07:47;;;;;;;16.98;7.20;;;;;;;;;;5049030;28;20566;-52
2021/11/23 06:10:13;;;;;;;17.98;7.13;;;;;;;;;;5050392;28;20025;-52
2021/11/23 06:12:39;;;;;;;19.55;7.95;;;;;;;;;;5050593;28;20029;-56
2021/11/23 06:15:08;;;;;;;12.68;7.22;;;;;;;;;;5050866;28;20095;-53
2021/11/23 06:17:34;;;;;;;15.55;7.45;;;;;;;;;;5047569;28;20021;-53
2021/11/23 06:20:00;;;;;;;16.48;7.32;;;;;;;;;;5051292;28;20025;-53
2021/11/23 06:22:26;;;;;;;17.13;6.93;;;;;;;;;;5044354;28;20064;-51
2021/11/23 06:24:52;;;;;;;14.82;7.28;;;;;;;;;;5038009;28;20112;-53
2021/11/23 06:27:18;;;;;;;15.25;7.03;;;;;;;;;;5046153;28;20112;-51
2021/11/23 06:29:47;;;;;;;20.15;7.90;;;;;;;;;;5050145;28;20500;-56
2021/11/23 06:32:13;;;;;;;14.63;6.88;;;;;;;;;;5048540;28;20036;-51
2021/11/23 06:34:39;;;;;;;12.70;7.07;;;;;;;;;;5047561;28;20071;-56
2021/11/23 06:37:04;;;;;;;15.18;7.10;;;;;;;;;;5051111;28;20103;-54
2021/11/23 06:39:30;;;;;;;13.82;7.22;;;;;;;;;;5050576;28;20035;-54
2021/11/23 06:41:56;;;;;;;15.32;7.60;;;;;;;;;;5050760;28;20036;-57
2021/11/23 06:44:22;;;;;;;14.50;6.78;;;;;;;;;;5051450;28;20036;-57
2021/11/23 06:46:48;;;;;;;15.15;7.53;;;;;;;;;;5050278;28;20021;-56
2021/11/23 06:49:14;;;;;;;14.00;7.00;;;;;;;;;;5051247;28;20083;-55
2021/11/23 06:51:41;;;;;;;12.40;7.00;;;;;;;;;;5046057;28;20033;-56
2021/11/23 06:54:06;;;;;;;12.32;6.72;;;;;;;;;;5055935;28;20032;-54
2021/11/23 06:56:32;;;;;;;14.45;6.75;;;;;;;;;;5055220;28;20020;-58
2021/11/23 06:59:00;;;;;;;17.15;6.70;;;;;;;;;;5053317;28;20025;-53
2021/11/23 07:01:26;;;;;;;18.13;8.07;;;;;;;;;;5051691;28;20059;-54
2021/11/23 07:03:52;;;;;;;18.20;7.75;;;;;;;;;;5054036;28;20473;-53
2021/11/23 07:06:18;;;;;;;17.30;7.30;;;;;;;;;;5055220;28;20087;-54
2021/11/23 07:08:44;;;;;;;18.52;7.90;;;;;;;;;;5054315;28;20465;-54
2021/11/23 07:11:12;;;;;;;15.82;7.15;;;;;;;;;;5054585;28;20048;-57
2021/11/23 07:13:38;;;;;;;15.35;6.90;;;;;;;;;;5055088;28;20028;-53
2021/11/23 07:16:04;;;;;;;20.48;7.45;;;;;;;;;;5055385;28;20021;-55
2021/11/23 07:18:30;;;;;;;18.73;7.68;;;;;;;;;;5054536;28;20406;-52
2021/11/23 07:20:56;;;;;;;17.17;7.70;;;;;;;;;;5053978;28;20033;-54
2021/11/23 07:23:23;;;;;;;16.92;7.68;;;;;;;;;;5048614;28;20021;-55
2021/11/23 07:25:50;;;;;;;15.38;6.85;;;;;;;;;;5052467;28;20475;-55
2021/11/23 07:28:16;;;;;;;18.08;6.95;;;;;;;;;;5051040;28;20104;-54
2021/11/23 07:30:42;;;;;;;14.38;7.10;;;;;;;;;;5053165;28;20040;-55
2021/11/23 07:33:08;;;;;;;17.88;8.35;;;;;;;;;;5046069;28;20124;-56
2021/11/23 07:35:34;;;;;;;14.38;6.97;;;;;;;;;;5065911;28;20112;-55
2021/11/23 07:38:00;;;;;;;16.30;7.65;;;;;;;;;;5053504;28;20090;-56
2021/11/23 07:40:26;;;;;;;21.52;7.53;;;;;;;;;;5056639;28;20536;-54
2021/11/23 07:42:52;;;;;;;14.80;7.20;;;;;;;;;;5055688;28;20044;-56
2021/11/23 07:45:18;;;;;;;16.90;6.90;;;;;;;;;;5057361;28;20080;-55
2021/11/23 07:47:44;;;;;;;14.63;7.57;;;;;;;;;;5049166;28;20091;-55
2021/11/23 07:50:11;;;;;;;19.15;7.65;;;;;;;;;;5056921;28;20029;-52
2021/11/23 07:52:37;;;;;;;17.38;7.65;;;;;;;;;;5057219;28;20021;-57
2021/11/23 07:55:03;;;;;;;18.25;7.80;;;;;;;;;;5053880;28;20033;-56
2021/11/23 07:57:29;;;;;;;15.68;6.63;;;;;;;;;;5056553;28;20027;-55
2021/11/23 07:59:55;;;;;;;18.70;7.47;;;;;;;;;;5061942;28;20443;-57
2021/11/23 08:02:21;;;;;;;17.13;7.45;;;;;;;;;;5051316;28;20029;-53
2021/11/23 08:04:47;;;;;;;17.17;7.55;;;;;;;;;;5053560;28;20025;-56
2021/11/23 08:07:13;;;;;;;15.05;7.18;;;;;;;;;;5050888;28;20039;-52
2021/11/23 08:09:39;;;;;;;12.23;5.88;;;;;;;;;;5042506;28;20362;-57
2021/11/23 08:12:05;;;;;;;14.43;6.75;;;;;;;;;;5053586;28;20025;-55
2021/11/23 08:14:31;;;;;;;16.15;7.35;;;;;;;;;;5053999;28;20029;-51
2021/11/23 08:16:58;;;;;;;14.02;7.10;;;;;;;;;;5057617;28;20352;-53
2021/11/23 08:19:24;;;;;;;14.93;7.10;;;;;;;;;;5053264;28;20048;-53
2021/11/23 08:21:50;;;;;;;18.10;7.28;;;;;;;;;;5053925;28;20138;-51
2021/11/23 08:24:16;;;;;;;13.43;6.43;;;;;;;;;;5053810;28;20398;-54
2021/11/23 08:26:42;;;;;;;14.07;6.97;;;;;;;;;;5051961;28;20500;-57
2021/11/23 08:29:08;;;;;;;16.85;7.43;;;;;;;;;;5048169;28;20021;-53
2021/11/23 08:31:35;;;;;;;13.60;7.30;;;;;;;;;;5053311;28;20037;-54
2021/11/23 08:34:03;;;;;;;19.08;7.07;;;;;;;;;;5053233;28;20045;-54
2021/11/23 08:36:29;;;;;;;14.02;6.65;;;;;;;;;;5050059;28;20036;-56
2021/11/23 08:38:56;;;;;;;13.57;6.53;;;;;;;;;;5045901;28;20104;-57
2021/11/23 08:41:22;;;;;;;16.50;6.88;;;;;;;;;;5053221;28;20041;-57
2021/11/23 08:43:48;;;;;;;16.08;6.93;;;;;;;;;;5051600;28;20404;-56
2021/11/23 08:46:14;;;;;;;17.95;6.10;;;;;;;;;;5053344;28;20108;-57
2021/11/23 08:48:40;;;;;;;19.77;7.20;;;;;;;;;;5050821;28;20029;-54
2021/11/23 08:51:12;;;;;;;12.18;6.10;;;;;;;;;;5052952;28;20024;-57
2021/11/23 08:53:38;;;;;;;15.32;5.90;;;;;;;;;;5051452;28;20424;-55
2021/11/23 08:56:05;;;;;;;14.52;6.68;;;;;;;;;;5053281;28;20101;-56
2021/11/23 08:58:31;;;;;;;15.10;6.40;;;;;;;;;;5052635;28;20045;-58
2021/11/23 09:00:58;;;;;;;12.70;5.65;;;;;;;;;;5047906;28;20037;-56
2021/11/23 09:03:24;;;;;;;12.32;6.07;;;;;;;;;;5052890;28;20024;-54
2021/11/23 09:05:52;;;;;;;12.90;5.75;;;;;;;;;;5052863;28;20025;-56
2021/11/23 09:08:18;;;;;;;16.42;6.68;;;;;;;;;;5049820;28;20025;-55
2021/11/23 09:10:44;;;;;;;14.20;6.22;;;;;;;;;;5048894;28;20528;-56
2021/11/23 09:13:11;;;;;;;13.32;5.85;;;;;;;;;;5052730;28;20018;-53
2021/11/23 09:15:37;;;;;;;14.93;6.50;;;;;;;;;;5051522;28;20115;-56
2021/11/23 09:18:04;;;;;;;11.65;6.55;;;;;;;;;;5052408;28;20099;-55
2021/11/23 09:20:35;;;;;;;16.42;6.63;;;;;;;;;;5053418;28;20108;-51
2021/11/23 09:23:05;;;;;;;14.32;6.30;;;;;;;;;;5054629;28;20037;-55
2021/11/23 09:25:31;;;;;;;15.27;7.20;;;;;;;;;;5051519;28;20036;-55
2021/11/23 09:27:59;;;;;;;15.32;6.85;;;;;;;;;;5050890;28;20036;-56
2021/11/23 09:30:25;;;;;;;13.82;6.53;;;;;;;;;;5052227;28;20020;-53
2021/11/23 09:32:51;;;;;;;15.48;7.55;;;;;;;;;;5042872;28;20055;-54
2021/11/23 09:35:19;;;;;;;15.38;6.70;;;;;;;;;;5052150;28;20104;-56
2021/11/23 09:37:45;;;;;;;14.73;6.35;;;;;;;;;;5051371;28;20510;-53
2021/11/23 09:40:11;;;;;;;16.27;7.30;;;;;;;;;;5052276;28;20043;-56
2021/11/23 09:42:37;;;;;;;18.85;6.90;;;;;;;;;;5047065;28;20029;-55
2021/11/23 09:45:04;;;;;;;11.75;6.18;;;;;;;;;;5052395;28;20031;-57
2021/11/23 09:47:30;;;;;;;17.58;8.18;;;;;;;;;;5050185;28;20025;-56
2021/11/23 09:50:00;;;;;;;15.93;6.57;;;;;;;;;;5052033;28;20028;-55
2021/11/23 09:52:26;;;;;;;14.57;6.70;;;;;;;;;;5050979;28;20033;-57
2021/11/23 09:54:52;;;;;;;16.85;6.72;;;;;;;;;;5052638;28;20034;-54
2021/11/23 09:57:18;;;;;;;18.10;8.13;;;;;;;;;;5052111;28;20029;-57
2021/11/23 09:59:44;;;;;;;19.33;7.40;;;;;;;;;;5042340;28;20645;-55
2021/11/23 10:02:10;;;;;;;19.50;8.23;;;;;;;;;;5052127;28;20102;-55
2021/11/23 10:04:37;;;;;;;15.27;6.97;;;;;;;;;;5051014;28;20048;-56
2021/11/23 10:07:06;;;;;;;15.23;7.28;;;;;;;;;;5051349;28;20041;-57
2021/11/23 10:09:37;;;;;;;14.43;6.75;;;;;;;;;;5045741;28;20359;-52
2021/11/23 10:12:24;;;;;;;17.13;6.95;;;;;;;;;;5051421;28;20036;-57
2021/11/23 10:15:09;;;;;;;16.23;6.97;;;;;;;;;;5046009;28;20505;-57
2021/11/23 10:17:35;;;;;;;15.27;7.15;;;;;;;;;;5043233;28;20064;-57
2021/11/23 10:20:01;;;;;;;20.30;7.50;;;;;;;;;;5049500;28;20647;-53
2021/11/23 10:22:34;;;;;;;14.60;7.47;;;;;;;;;;5050154;28;20103;-56
2021/11/23 10:25:00;;;;;;;;;;;;;;;;;;5040698;28;20033;-57
2021/11/23 10:27:26;;;;;;;18.67;7.72;;;;;;;;;;5042276;28;19998;-54
2021/11/23 10:29:53;;;;;;;14.88;6.63;;;;;;;;;;5050197;28;20116;-56
2021/11/23 10:32:18;;;;;;;13.48;6.07;;;;;;;;;;5044622;28;20029;-57
2021/11/23 10:34:45;;;;;;;13.30;5.90;;;;;;;;;;5043630;28;20492;-56
2021/11/23 10:37:30;;;;;;;11.82;5.70;;;;;;;;;;5051253;28;20059;-55
2021/11/23 10:40:05;;;;;;;12.07;5.97;;;;;;;;;;5051866;28;20037;-53
2021/11/23 10:42:34;;;;;;;13.88;6.53;;;;;;;;;;5041228;28;20051;-57
2021/11/23 10:45:00;;;;;;;14.60;7.07;;;;;;;;;;5050934;28;20112;-54
2021/11/23 10:47:26;;;;;;;12.63;5.60;;;;;;;;;;5040124;28;20017;-55
2021/11/23 10:49:54;;;;;;;15.85;5.85;;;;;;;;;;5045007;28;20099;-54
2021/11/23 10:52:24;;;;;;;10.82;5.55;;;;;;;;;;5044174;28;20032;-54
2021/11/23 10:54:50;;;;;;;11.82;5.93;;;;;;;;;;5051430;28;20037;-56
2021/11/23 10:57:16;;;;;;;15.00;6.82;;;;;;;;;;5047128;28;20500;-56
2021/11/23 10:59:42;;;;;;;9.93;5.22;;;;;;;;;;5050847;28;20032;-55
2021/11/23 11:02:09;;;;;;;12.70;5.72;;;;;;;;;;5049742;28;20477;-57
2021/11/23 11:04:36;;;;;;;14.27;5.28;;;;;;;;;;5051446;28;20028;-55
2021/11/23 11:07:03;;;;;;;16.60;6.00;;;;;;;;;;5049038;28;20033;-55
2021/11/23 11:09:29;;;;;;;12.68;6.93;;;;;;;;;;5050861;28;20083;-56
2021/11/23 11:11:55;;;;;;;19.55;6.38;;;;;;;;;;5050620;28;20048;-55
2021/11/23 11:14:22;;;;;;;14.07;5.45;;;;;;;;;;5049650;28;20075;-57
2021/11/23 11:16:48;;;;;;;11.57;5.85;;;;;;;;;;5058442;28;20090;-52
2021/11/23 11:19:15;;;;;;;10.23;5.45;;;;;;;;;;5056056;28;20079;-55
2021/11/23 11:21:41;;;;;;;12.35;5.72;;;;;;;;;;5056983;28;20024;-56
2021/11/23 11:24:26;;;;;;;14.82;5.47;;;;;;;;;;5052608;28;20103;-57
2021/11/23 11:27:00;;;;;;;17.20;6.35;;;;;;;;;;5057540;28;20044;-52
2021/11/23 11:29:27;;;;;;;17.80;6.50;;;;;;;;;;5059054;28;20051;-55
2021/11/23 11:31:53;;;;;;;13.65;6.25;;;;;;;;;;5058424;28;20033;-56
2021/11/23 11:34:21;;;;;;;17.92;6.72;;;;;;;;;;5059147;28;20064;-58
2021/11/23 11:36:48;;;;;;;14.40;6.63;;;;;;;;;;5050813;28;20477;-57
2021/11/23 11:39:43;;;;;;;11.90;5.68;;;;;;;;;;5052498;28;20043;-57
2021/11/23 11:42:29;;;;;;;16.30;5.50;;;;;;;;;;5048207;28;20115;-55
2021/11/23 11:44:55;;;;;;;12.00;5.55;;;;;;;;;;5053777;28;20377;-53
2021/11/23 11:47:35;;;;;;;12.60;5.88;;;;;;;;;;5051648;28;20150;-52
2021/11/23 11:50:03;;;;;;;13.80;5.53;;;;;;;;;;5053096;28;20033;-56
2021/11/23 11:52:32;;;;;;;11.80;5.63;;;;;;;;;;5052568;28;20053;-57
2021/11/23 11:55:17;;;;;;;11.20;5.32;;;;;;;;;;5054499;28;20361;-54
2021/11/23 11:57:44;;;;;;;11.57;4.93;;;;;;;;;;5053316;28;20484;-56
2021/11/23 12:00:36;;;;;;;13.23;4.90;;;;;;;;;;5052873;28;20554;-54
2021/11/23 12:03:18;;;;;;;10.60;5.00;;;;;;;;;;5052658;28;20557;-56
2021/11/23 12:05:47;;;;;;;12.35;5.90;;;;;;;;;;5054560;28;20047;-54
2021/11/23 12:08:29;;;;;;;12.38;5.28;;;;;;;;;;5054022;28;20053;-57
2021/11/23 12:10:55;;;;;;;12.70;5.50;;;;;;;;;;5053771;28;20048;-55
2021/11/23 12:13:26;;;;;;;12.73;5.25;;;;;;;;;;5053951;28;20082;-58
2021/11/23 12:16:12;;;;;;;9.57;5.22;;;;;;;;;;5051164;28;20055;-57
2021/11/23 12:18:58;;;;;;;13.18;5.60;;;;;;;;;;5055352;28;20107;-57
2021/11/23 12:21:28;;;;;;;9.90;4.32;;;;;;;;;;5054922;28;20028;-55
2021/11/23 12:24:01;;;;;;;10.90;5.72;;;;;;;;;;5052605;28;20021;-57
2021/11/23 12:26:38;;;;;;;13.25;5.00;;;;;;;;;;5051805;28;20105;-57
2021/11/23 12:29:16;;;;;;;13.70;5.45;;;;;;;;;;5046009;28;20052;-57
2021/11/23 12:31:46;;;;;;;10.05;5.22;;;;;;;;;;5053342;28;20033;-57
2021/11/23 12:34:12;;;;;;;14.23;6.45;;;;;;;;;;5051756;28;20044;-57
2021/11/23 12:36:45;;;;;;;12.73;5.45;;;;;;;;;;5054224;28;20033;-55
2021/11/23 12:39:12;;;;;;;14.52;5.45;;;;;;;;;;5050231;28;20376;-54
2021/11/23 12:41:39;;;;;;;9.77;5.00;;;;;;;;;;5043099;28;20032;-56
2021/11/23 12:44:15;;;;;;;13.15;6.00;;;;;;;;;;5045786;28;20043;-54
2021/11/23 12:46:49;;;;;;;14.57;5.72;;;;;;;;;;5052515;28;20033;-56
2021/11/23 12:49:15;;;;;;;14.00;5.97;;;;;;;;;;5040396;28;20022;-56
2021/11/23 12:51:44;;;;;;;11.55;5.15;;;;;;;;;;5047535;28;20028;-56
2021/11/23 12:54:10;;;;;;;11.52;4.75;;;;;;;;;;5038663;28;20541;-57
2021/11/23 12:56:50;;;;;;;7.50;4.97;;;;;;;;;;5058444;28;20032;-58
2021/11/23 12:59:31;;;;;;;14.40;5.13;;;;;;;;;;5053193;28;20029;-57
2021/11/23 13:02:00;;;;;;;8.65;4.78;;;;;;;;;;5051497;28;20029;-55
2021/11/23 13:04:36;;;;;;;11.10;5.85;;;;;;;;;;5049551;28;20029;-56
2021/11/23 13:07:09;;;;;;;10.80;4.90;;;;;;;;;;5044933;28;20052;-57
2021/11/23 13:09:44;;;;;;;10.95;5.47;;;;;;;;;;5043071;28;20026;-54
2021/11/23 13:12:10;;;;;;;12.10;6.15;;;;;;;;;;5052180;28;20231;-54
2021/11/23 13:14:49;;;;;;;12.75;5.97;;;;;;;;;;5050527;28;20025;-54
2021/11/23 13:17:15;;;;;;;13.52;6.30;;;;;;;;;;5046385;28;20145;-55
2021/11/23 13:19:53;;;;;;;11.50;5.50;;;;;;;;;;5045236;28;20021;-56
2021/11/23 13:22:19;;;;;;;11.43;5.95;;;;;;;;;;5042483;28;20025;-55
2021/11/23 13:24:45;;;;;;;9.63;5.00;;;;;;;;;;5044315;28;20032;-53
2021/11/23 13:27:11;;;;;;;12.52;6.43;;;;;;;;;;5043418;28;20021;-53
2021/11/23 13:29:40;;;;;;;10.65;4.95;;;;;;;;;;5050186;28;20028;-53
2021/11/23 13:32:06;;;;;;;12.55;5.78;;;;;;;;;;5045552;28;20485;-55
2021/11/23 13:34:32;;;;;;;9.73;5.47;;;;;;;;;;5053216;28;20049;-55
2021/11/23 13:36:58;;;;;;;9.45;4.47;;;;;;;;;;5057353;28;20468;-54
2021/11/23 13:39:27;;;;;;;11.00;5.13;;;;;;;;;;5044620;28;20083;-56
2021/11/23 13:41:57;;;;;;;8.75;4.95;;;;;;;;;;5048362;28;20067;-56
2021/11/23 13:44:25;;;;;;;11.85;5.10;;;;;;;;;;5060368;28;20128;-55
2021/11/23 13:46:55;;;;;;;9.15;4.40;;;;;;;;;;5057998;28;20052;-56
2021/11/23 13:49:30;;;;;;;11.13;4.75;;;;;;;;;;5049285;28;20122;-57
2021/11/23 13:52:08;;;;;;;11.68;4.68;;;;;;;;;;5042411;28;20040;-53
2021/11/23 13:54:41;;;;;;;15.13;5.50;;;;;;;;;;5045352;28;20765;-55
2021/11/23 13:57:08;;;;;;;14.20;5.05;;;;;;;;;;5040709;28;20040;-56
2021/11/23 13:59:34;;;;;;;10.00;4.75;;;;;;;;;;5055083;28;20545;-56
2021/11/23 14:02:01;;;;;;;11.98;4.60;;;;;;;;;;5055531;28;20037;-57
2021/11/23 14:04:29;;;;;;;9.95;5.18;;;;;;;;;;5050878;28;20024;-53
2021/11/23 14:06:59;;;;;;;10.25;5.25;;;;;;;;;;5045237;28;20040;-55
2021/11/23 14:09:25;;;;;;;8.40;4.43;;;;;;;;;;5042563;28;20420;-57
2021/11/23 14:12:01;;;;;;;14.45;5.03;;;;;;;;;;5042297;28;20032;-57
2021/11/23 14:14:27;;;;;;;11.05;4.80;;;;;;;;;;5044654;28;20096;-57
2021/11/23 14:16:55;;;;;;;12.38;4.43;;;;;;;;;;5046622;28;20029;-56
2021/11/23 14:19:21;;;;;;;8.35;4.10;;;;;;;;;;5047806;28;20029;-52
2021/11/23 14:21:54;;;;;;;9.20;4.90;;;;;;;;;;5045437;28;20024;-55
2021/11/23 14:24:30;;;;;;;9.65;4.25;;;;;;;;;;5047831;28;20044;-56
2021/11/23 14:27:01;;;;;;;8.32;4.22;;;;;;;;;;5047347;28;20030;-56
2021/11/23 14:29:27;;;;;;;10.77;5.07;;;;;;;;;;5044594;28;20109;-57
2021/11/23 14:31:58;;;;;;;8.30;3.97;;;;;;;;;;5042028;28;21140;-57
2021/11/23 14:34:26;;;;;;;10.70;4.20;;;;;;;;;;5045468;28;20049;-57